sensor_id;sensor_type;location;lat;lon;timestamp;P1;durP1;ratioP1;P2;durP2;ratioP2
59555;SDS011;45374;52.746;6.304;2022-08-20T00:00:13;22.58;;;13.95;;
59555;SDS011;45374;52.746;6.304;2022-08-20T00:02:42;24.50;;;14.77;;
59555;SDS011;45374;52.746;6.304;2022-08-20T00:05:11;27.88;;;13.90;;
59555;SDS011;45374;52.746;6.304;2022-08-20T00:07:38;24.35;;;13.60;;
59555;SDS011;45374;52.746;6.304;2022-08-20T00:10:05;23.02;;;13.23;;
59555;SDS011;45374;52.746;6.304;2022-08-20T00:12:32;20.65;;;13.38;;
59555;SDS011;45374;52.746;6.304;2022-08-20T00:14:59;25.00;;;13.60;;
59555;SDS011;45374;52.746;6.304;2022-08-20T00:17:25;26.45;;;13.88;;
59555;SDS011;45374;52.746;6.304;2022-08-20T00:19:51;26.25;;;14.38;;
59555;SDS011;45374;52.746;6.304;2022-08-20T00:22:17;23.13;;;13.80;;
59555;SDS011;45374;52.746;6.304;2022-08-20T00:24:42;22.90;;;12.90;;
59555;SDS011;45374;52.746;6.304;2022-08-20T00:27:08;21.30;;;13.85;;
59555;SDS011;45374;52.746;6.304;2022-08-20T00:29:33;26.45;;;13.60;;
59555;SDS011;45374;52.746;6.304;2022-08-20T00:31:59;24.13;;;13.77;;
59555;SDS011;45374;52.746;6.304;2022-08-20T00:34:25;26.42;;;14.23;;
59555;SDS011;45374;52.746;6.304;2022-08-20T00:36:52;25.67;;;13.10;;
59555;SDS011;45374;52.746;6.304;2022-08-20T00:39:17;20.90;;;13.38;;
59555;SDS011;45374;52.746;6.304;2022-08-20T00:41:43;21.92;;;13.43;;
59555;SDS011;45374;52.746;6.304;2022-08-20T00:46:36;21.95;;;12.20;;
59555;SDS011;45374;52.746;6.304;2022-08-20T00:49:04;22.20;;;12.73;;
59555;SDS011;45374;52.746;6.304;2022-08-20T00:51:34;22.45;;;12.30;;
59555;SDS011;45374;52.746;6.304;2022-08-20T00:57:08;20.55;;;11.63;;
59555;SDS011;45374;52.746;6.304;2022-08-20T00:59:36;22.73;;;11.90;;
59555;SDS011;45374;52.746;6.304;2022-08-20T01:02:05;23.27;;;12.05;;
59555;SDS011;45374;52.746;6.304;2022-08-20T01:04:37;26.83;;;12.10;;
59555;SDS011;45374;52.746;6.304;2022-08-20T01:07:03;23.30;;;12.00;;
59555;SDS011;45374;52.746;6.304;2022-08-20T01:09:31;22.70;;;11.25;;
59555;SDS011;45374;52.746;6.304;2022-08-20T01:11:57;25.45;;;11.23;;
59555;SDS011;45374;52.746;6.304;2022-08-20T01:14:23;19.95;;;11.20;;
59555;SDS011;45374;52.746;6.304;2022-08-20T01:16:58;22.30;;;11.57;;
59555;SDS011;45374;52.746;6.304;2022-08-20T01:19:43;26.92;;;11.95;;
59555;SDS011;45374;52.746;6.304;2022-08-20T01:22:13;30.17;;;12.80;;
59555;SDS011;45374;52.746;6.304;2022-08-20T01:25:09;25.33;;;12.27;;
59555;SDS011;45374;52.746;6.304;2022-08-20T01:27:39;22.60;;;11.68;;
59555;SDS011;45374;52.746;6.304;2022-08-20T01:30:05;28.80;;;11.75;;
59555;SDS011;45374;52.746;6.304;2022-08-20T01:32:32;26.33;;;11.93;;
59555;SDS011;45374;52.746;6.304;2022-08-20T01:34:57;24.05;;;12.38;;
59555;SDS011;45374;52.746;6.304;2022-08-20T01:37:23;22.65;;;11.20;;
59555;SDS011;45374;52.746;6.304;2022-08-20T01:39:48;23.58;;;11.25;;
59555;SDS011;45374;52.746;6.304;2022-08-20T01:42:17;24.25;;;11.77;;
59555;SDS011;45374;52.746;6.304;2022-08-20T01:44:51;22.35;;;11.00;;
59555;SDS011;45374;52.746;6.304;2022-08-20T01:47:24;23.10;;;10.75;;
59555;SDS011;45374;52.746;6.304;2022-08-20T01:49:53;19.50;;;10.88;;
59555;SDS011;45374;52.746;6.304;2022-08-20T01:52:30;18.88;;;10.63;;
59555;SDS011;45374;52.746;6.304;2022-08-20T01:54:57;20.33;;;10.13;;
59555;SDS011;45374;52.746;6.304;2022-08-20T01:57:23;24.58;;;9.27;;
59555;SDS011;45374;52.746;6.304;2022-08-20T01:59:51;23.90;;;9.45;;
59555;SDS011;45374;52.746;6.304;2022-08-20T02:02:18;19.83;;;9.48;;
59555;SDS011;45374;52.746;6.304;2022-08-20T02:04:44;21.38;;;9.60;;
59555;SDS011;45374;52.746;6.304;2022-08-20T02:07:15;20.60;;;10.07;;
59555;SDS011;45374;52.746;6.304;2022-08-20T02:09:44;20.63;;;9.57;;
59555;SDS011;45374;52.746;6.304;2022-08-20T02:12:10;29.00;;;10.93;;
59555;SDS011;45374;52.746;6.304;2022-08-20T02:14:39;22.05;;;10.40;;
59555;SDS011;45374;52.746;6.304;2022-08-20T02:17:06;24.13;;;10.35;;
59555;SDS011;45374;52.746;6.304;2022-08-20T02:19:34;18.40;;;10.20;;
59555;SDS011;45374;52.746;6.304;2022-08-20T02:22:15;21.48;;;11.10;;
59555;SDS011;45374;52.746;6.304;2022-08-20T02:24:46;23.50;;;10.65;;
59555;SDS011;45374;52.746;6.304;2022-08-20T02:27:12;18.67;;;9.90;;
59555;SDS011;45374;52.746;6.304;2022-08-20T02:29:38;21.30;;;10.32;;
59555;SDS011;45374;52.746;6.304;2022-08-20T02:32:04;19.70;;;10.00;;
59555;SDS011;45374;52.746;6.304;2022-08-20T02:34:31;21.50;;;9.85;;
59555;SDS011;45374;52.746;6.304;2022-08-20T02:37:00;23.73;;;9.63;;
59555;SDS011;45374;52.746;6.304;2022-08-20T02:39:27;24.98;;;9.30;;
59555;SDS011;45374;52.746;6.304;2022-08-20T02:41:53;19.33;;;9.95;;
59555;SDS011;45374;52.746;6.304;2022-08-20T02:44:18;20.60;;;10.02;;
59555;SDS011;45374;52.746;6.304;2022-08-20T02:46:46;21.08;;;9.82;;
59555;SDS011;45374;52.746;6.304;2022-08-20T02:49:15;26.10;;;10.50;;
59555;SDS011;45374;52.746;6.304;2022-08-20T02:51:42;24.13;;;10.70;;
59555;SDS011;45374;52.746;6.304;2022-08-20T02:54:08;20.77;;;9.98;;
59555;SDS011;45374;52.746;6.304;2022-08-20T02:56:34;19.05;;;9.57;;
59555;SDS011;45374;52.746;6.304;2022-08-20T02:58:59;26.55;;;10.02;;
59555;SDS011;45374;52.746;6.304;2022-08-20T03:01:25;20.15;;;10.00;;
59555;SDS011;45374;52.746;6.304;2022-08-20T03:03:51;21.75;;;10.25;;
59555;SDS011;45374;52.746;6.304;2022-08-20T03:06:17;22.42;;;10.07;;
59555;SDS011;45374;52.746;6.304;2022-08-20T03:08:45;23.80;;;10.90;;
59555;SDS011;45374;52.746;6.304;2022-08-20T03:11:11;22.80;;;10.48;;
59555;SDS011;45374;52.746;6.304;2022-08-20T03:13:37;25.30;;;10.52;;
59555;SDS011;45374;52.746;6.304;2022-08-20T03:16:03;21.85;;;10.23;;
59555;SDS011;45374;52.746;6.304;2022-08-20T03:18:35;20.23;;;10.88;;
59555;SDS011;45374;52.746;6.304;2022-08-20T03:21:07;23.25;;;10.63;;
59555;SDS011;45374;52.746;6.304;2022-08-20T03:23:33;27.38;;;11.15;;
59555;SDS011;45374;52.746;6.304;2022-08-20T03:25:59;16.65;;;10.25;;
59555;SDS011;45374;52.746;6.304;2022-08-20T03:28:25;26.45;;;10.40;;
59555;SDS011;45374;52.746;6.304;2022-08-20T03:30:51;25.20;;;10.30;;
59555;SDS011;45374;52.746;6.304;2022-08-20T03:33:18;29.25;;;10.27;;
59555;SDS011;45374;52.746;6.304;2022-08-20T03:35:45;22.52;;;10.48;;
59555;SDS011;45374;52.746;6.304;2022-08-20T03:38:12;21.30;;;10.70;;
59555;SDS011;45374;52.746;6.304;2022-08-20T03:40:39;27.55;;;10.82;;
59555;SDS011;45374;52.746;6.304;2022-08-20T03:43:06;23.02;;;11.00;;
59555;SDS011;45374;52.746;6.304;2022-08-20T03:45:33;23.42;;;10.80;;
59555;SDS011;45374;52.746;6.304;2022-08-20T03:48:00;23.02;;;11.30;;
59555;SDS011;45374;52.746;6.304;2022-08-20T03:50:29;20.63;;;10.60;;
59555;SDS011;45374;52.746;6.304;2022-08-20T03:52:56;20.90;;;11.13;;
59555;SDS011;45374;52.746;6.304;2022-08-20T03:55:22;27.88;;;11.13;;
59555;SDS011;45374;52.746;6.304;2022-08-20T03:57:59;18.30;;;10.65;;
59555;SDS011;45374;52.746;6.304;2022-08-20T04:00:29;23.80;;;10.38;;
59555;SDS011;45374;52.746;6.304;2022-08-20T04:03:03;19.88;;;10.10;;
59555;SDS011;45374;52.746;6.304;2022-08-20T04:05:29;26.75;;;10.50;;
59555;SDS011;45374;52.746;6.304;2022-08-20T04:07:58;23.10;;;10.18;;
59555;SDS011;45374;52.746;6.304;2022-08-20T04:10:24;22.88;;;10.75;;
59555;SDS011;45374;52.746;6.304;2022-08-20T04:12:50;24.73;;;10.20;;
59555;SDS011;45374;52.746;6.304;2022-08-20T04:15:17;19.23;;;10.52;;
59555;SDS011;45374;52.746;6.304;2022-08-20T04:17:44;22.10;;;10.45;;
59555;SDS011;45374;52.746;6.304;2022-08-20T04:20:13;20.30;;;9.32;;
59555;SDS011;45374;52.746;6.304;2022-08-20T04:22:42;17.08;;;9.55;;
59555;SDS011;45374;52.746;6.304;2022-08-20T04:25:08;18.45;;;8.73;;
59555;SDS011;45374;52.746;6.304;2022-08-20T04:27:37;17.25;;;8.43;;
59555;SDS011;45374;52.746;6.304;2022-08-20T04:30:04;18.73;;;8.63;;
59555;SDS011;45374;52.746;6.304;2022-08-20T04:32:31;16.10;;;9.05;;
59555;SDS011;45374;52.746;6.304;2022-08-20T04:35:00;17.38;;;9.70;;
59555;SDS011;45374;52.746;6.304;2022-08-20T04:37:26;21.75;;;9.20;;
59555;SDS011;45374;52.746;6.304;2022-08-20T04:39:51;18.70;;;9.13;;
59555;SDS011;45374;52.746;6.304;2022-08-20T04:42:36;21.77;;;8.52;;
59555;SDS011;45374;52.746;6.304;2022-08-20T04:45:05;14.65;;;8.50;;
59555;SDS011;45374;52.746;6.304;2022-08-20T04:47:33;18.38;;;8.95;;
59555;SDS011;45374;52.746;6.304;2022-08-20T04:49:59;17.33;;;8.43;;
59555;SDS011;45374;52.746;6.304;2022-08-20T04:52:26;15.93;;;8.30;;
59555;SDS011;45374;52.746;6.304;2022-08-20T04:54:52;19.73;;;8.50;;
59555;SDS011;45374;52.746;6.304;2022-08-20T04:57:20;13.15;;;8.10;;
59555;SDS011;45374;52.746;6.304;2022-08-20T04:59:50;16.88;;;8.05;;
59555;SDS011;45374;52.746;6.304;2022-08-20T05:02:19;14.48;;;8.02;;
59555;SDS011;45374;52.746;6.304;2022-08-20T05:04:46;17.27;;;8.32;;
59555;SDS011;45374;52.746;6.304;2022-08-20T05:07:13;20.48;;;9.00;;
59555;SDS011;45374;52.746;6.304;2022-08-20T05:09:40;15.80;;;8.32;;
59555;SDS011;45374;52.746;6.304;2022-08-20T05:12:07;18.27;;;7.85;;
59555;SDS011;45374;52.746;6.304;2022-08-20T05:14:33;15.35;;;7.75;;
59555;SDS011;45374;52.746;6.304;2022-08-20T05:17:02;18.73;;;7.43;;
59555;SDS011;45374;52.746;6.304;2022-08-20T05:19:29;15.30;;;8.02;;
59555;SDS011;45374;52.746;6.304;2022-08-20T05:21:57;17.98;;;8.10;;
59555;SDS011;45374;52.746;6.304;2022-08-20T05:24:22;17.45;;;7.85;;
59555;SDS011;45374;52.746;6.304;2022-08-20T05:26:49;14.00;;;7.90;;
59555;SDS011;45374;52.746;6.304;2022-08-20T05:29:14;15.95;;;8.07;;
59555;SDS011;45374;52.746;6.304;2022-08-20T05:31:40;18.38;;;7.70;;
59555;SDS011;45374;52.746;6.304;2022-08-20T05:34:07;15.18;;;7.75;;
59555;SDS011;45374;52.746;6.304;2022-08-20T05:36:35;13.07;;;7.43;;
59555;SDS011;45374;52.746;6.304;2022-08-20T05:39:03;17.33;;;8.18;;
59555;SDS011;45374;52.746;6.304;2022-08-20T05:41:29;13.25;;;7.30;;
59555;SDS011;45374;52.746;6.304;2022-08-20T05:43:54;14.25;;;7.82;;
59555;SDS011;45374;52.746;6.304;2022-08-20T05:48:54;16.65;;;8.55;;
59555;SDS011;45374;52.746;6.304;2022-08-20T05:51:20;17.20;;;8.60;;
59555;SDS011;45374;52.746;6.304;2022-08-20T05:53:45;17.48;;;8.70;;
59555;SDS011;45374;52.746;6.304;2022-08-20T05:56:11;22.45;;;9.23;;
59555;SDS011;45374;52.746;6.304;2022-08-20T05:58:37;15.43;;;8.48;;
59555;SDS011;45374;52.746;6.304;2022-08-20T06:01:03;15.15;;;8.18;;
59555;SDS011;45374;52.746;6.304;2022-08-20T06:03:28;13.00;;;7.40;;
59555;SDS011;45374;52.746;6.304;2022-08-20T06:06:12;18.20;;;7.72;;
59555;SDS011;45374;52.746;6.304;2022-08-20T06:08:38;13.90;;;7.88;;
59555;SDS011;45374;52.746;6.304;2022-08-20T06:11:05;17.75;;;7.82;;
59555;SDS011;45374;52.746;6.304;2022-08-20T06:13:31;14.45;;;7.43;;
59555;SDS011;45374;52.746;6.304;2022-08-20T06:15:58;14.60;;;6.55;;
59555;SDS011;45374;52.746;6.304;2022-08-20T06:18:25;12.80;;;6.18;;
59555;SDS011;45374;52.746;6.304;2022-08-20T06:20:51;10.05;;;5.85;;
59555;SDS011;45374;52.746;6.304;2022-08-20T06:23:17;12.85;;;6.10;;
59555;SDS011;45374;52.746;6.304;2022-08-20T06:25:43;15.75;;;6.13;;
59555;SDS011;45374;52.746;6.304;2022-08-20T06:28:09;14.77;;;6.20;;
59555;SDS011;45374;52.746;6.304;2022-08-20T06:30:37;17.88;;;5.65;;
59555;SDS011;45374;52.746;6.304;2022-08-20T06:33:02;14.85;;;4.90;;
59555;SDS011;45374;52.746;6.304;2022-08-20T06:35:28;11.73;;;4.93;;
59555;SDS011;45374;52.746;6.304;2022-08-20T06:37:54;11.77;;;5.00;;
59555;SDS011;45374;52.746;6.304;2022-08-20T06:40:22;9.57;;;4.78;;
59555;SDS011;45374;52.746;6.304;2022-08-20T06:42:50;6.78;;;3.70;;
59555;SDS011;45374;52.746;6.304;2022-08-20T06:45:17;10.45;;;3.10;;
59555;SDS011;45374;52.746;6.304;2022-08-20T06:47:49;11.88;;;3.15;;
59555;SDS011;45374;52.746;6.304;2022-08-20T06:50:17;9.32;;;3.40;;
59555;SDS011;45374;52.746;6.304;2022-08-20T06:52:46;12.70;;;3.22;;
59555;SDS011;45374;52.746;6.304;2022-08-20T06:55:12;10.50;;;3.08;;
59555;SDS011;45374;52.746;6.304;2022-08-20T06:57:40;12.27;;;3.25;;
59555;SDS011;45374;52.746;6.304;2022-08-20T07:00:08;11.50;;;3.40;;
59555;SDS011;45374;52.746;6.304;2022-08-20T07:02:36;7.50;;;2.90;;
59555;SDS011;45374;52.746;6.304;2022-08-20T07:05:02;9.55;;;2.95;;
59555;SDS011;45374;52.746;6.304;2022-08-20T07:07:29;12.98;;;3.03;;
59555;SDS011;45374;52.746;6.304;2022-08-20T07:09:59;9.20;;;2.45;;
59555;SDS011;45374;52.746;6.304;2022-08-20T07:12:25;10.15;;;2.85;;
59555;SDS011;45374;52.746;6.304;2022-08-20T07:14:51;7.82;;;2.50;;
59555;SDS011;45374;52.746;6.304;2022-08-20T07:17:16;6.18;;;2.35;;
59555;SDS011;45374;52.746;6.304;2022-08-20T07:19:42;9.73;;;2.47;;
59555;SDS011;45374;52.746;6.304;2022-08-20T07:22:07;4.47;;;1.92;;
59555;SDS011;45374;52.746;6.304;2022-08-20T07:24:33;8.00;;;2.50;;
59555;SDS011;45374;52.746;6.304;2022-08-20T07:26:58;6.25;;;2.00;;
59555;SDS011;45374;52.746;6.304;2022-08-20T07:29:24;7.70;;;2.00;;
59555;SDS011;45374;52.746;6.304;2022-08-20T07:32:10;6.30;;;1.73;;
59555;SDS011;45374;52.746;6.304;2022-08-20T07:34:54;7.65;;;1.80;;
59555;SDS011;45374;52.746;6.304;2022-08-20T07:37:20;8.27;;;1.70;;
59555;SDS011;45374;52.746;6.304;2022-08-20T07:39:48;10.23;;;2.15;;
59555;SDS011;45374;52.746;6.304;2022-08-20T07:42:13;9.07;;;2.03;;
59555;SDS011;45374;52.746;6.304;2022-08-20T07:44:39;8.20;;;1.98;;
59555;SDS011;45374;52.746;6.304;2022-08-20T07:47:18;4.00;;;1.35;;
59555;SDS011;45374;52.746;6.304;2022-08-20T07:49:43;6.25;;;2.00;;
59555;SDS011;45374;52.746;6.304;2022-08-20T07:52:09;5.32;;;2.15;;
59555;SDS011;45374;52.746;6.304;2022-08-20T07:54:34;6.53;;;1.60;;
59555;SDS011;45374;52.746;6.304;2022-08-20T07:57:02;7.72;;;1.85;;
59555;SDS011;45374;52.746;6.304;2022-08-20T07:59:28;7.15;;;1.50;;
59555;SDS011;45374;52.746;6.304;2022-08-20T08:01:54;6.03;;;1.50;;
59555;SDS011;45374;52.746;6.304;2022-08-20T08:04:20;4.90;;;1.55;;
59555;SDS011;45374;52.746;6.304;2022-08-20T08:06:47;6.90;;;1.60;;
59555;SDS011;45374;52.746;6.304;2022-08-20T08:09:12;4.78;;;1.20;;
59555;SDS011;45374;52.746;6.304;2022-08-20T08:11:39;4.80;;;1.27;;
59555;SDS011;45374;52.746;6.304;2022-08-20T08:14:09;8.02;;;1.40;;
59555;SDS011;45374;52.746;6.304;2022-08-20T08:16:36;5.85;;;1.30;;
59555;SDS011;45374;52.746;6.304;2022-08-20T08:19:02;8.88;;;1.20;;
59555;SDS011;45374;52.746;6.304;2022-08-20T08:21:30;3.22;;;1.23;;
59555;SDS011;45374;52.746;6.304;2022-08-20T08:23:57;7.47;;;1.48;;
59555;SDS011;45374;52.746;6.304;2022-08-20T08:26:23;5.20;;;1.65;;
59555;SDS011;45374;52.746;6.304;2022-08-20T08:28:49;6.32;;;1.65;;
59555;SDS011;45374;52.746;6.304;2022-08-20T08:31:15;4.38;;;1.67;;
59555;SDS011;45374;52.746;6.304;2022-08-20T08:33:41;7.00;;;1.80;;
59555;SDS011;45374;52.746;6.304;2022-08-20T08:36:08;5.20;;;1.38;;
59555;SDS011;45374;52.746;6.304;2022-08-20T08:38:37;8.52;;;1.80;;
59555;SDS011;45374;52.746;6.304;2022-08-20T08:41:13;5.45;;;1.52;;
59555;SDS011;45374;52.746;6.304;2022-08-20T08:46:30;4.97;;;1.15;;
59555;SDS011;45374;52.746;6.304;2022-08-20T08:48:58;6.55;;;1.70;;
59555;SDS011;45374;52.746;6.304;2022-08-20T08:51:27;4.03;;;1.38;;
59555;SDS011;45374;52.746;6.304;2022-08-20T08:53:58;8.70;;;1.70;;
59555;SDS011;45374;52.746;6.304;2022-08-20T08:56:26;8.38;;;1.40;;
59555;SDS011;45374;52.746;6.304;2022-08-20T08:58:58;9.10;;;1.65;;
59555;SDS011;45374;52.746;6.304;2022-08-20T09:01:28;5.95;;;1.40;;
59555;SDS011;45374;52.746;6.304;2022-08-20T09:03:58;8.73;;;1.50;;
59555;SDS011;45374;52.746;6.304;2022-08-20T09:06:26;3.95;;;1.30;;
59555;SDS011;45374;52.746;6.304;2022-08-20T09:08:53;5.75;;;1.10;;
59555;SDS011;45374;52.746;6.304;2022-08-20T09:11:23;5.55;;;1.52;;
59555;SDS011;45374;52.746;6.304;2022-08-20T09:13:49;6.28;;;1.17;;
59555;SDS011;45374;52.746;6.304;2022-08-20T09:16:18;4.63;;;1.13;;
59555;SDS011;45374;52.746;6.304;2022-08-20T09:18:44;4.13;;;1.00;;
59555;SDS011;45374;52.746;6.304;2022-08-20T09:21:10;3.15;;;1.08;;
59555;SDS011;45374;52.746;6.304;2022-08-20T09:23:36;6.07;;;1.20;;
59555;SDS011;45374;52.746;6.304;2022-08-20T09:26:02;4.32;;;1.08;;
59555;SDS011;45374;52.746;6.304;2022-08-20T09:28:27;5.72;;;1.23;;
59555;SDS011;45374;52.746;6.304;2022-08-20T09:30:53;7.03;;;1.40;;
59555;SDS011;45374;52.746;6.304;2022-08-20T09:33:19;7.65;;;1.55;;
59555;SDS011;45374;52.746;6.304;2022-08-20T09:35:44;4.18;;;1.15;;
59555;SDS011;45374;52.746;6.304;2022-08-20T09:38:11;5.28;;;1.35;;
59555;SDS011;45374;52.746;6.304;2022-08-20T09:40:37;8.77;;;1.20;;
59555;SDS011;45374;52.746;6.304;2022-08-20T09:43:06;4.22;;;1.30;;
59555;SDS011;45374;52.746;6.304;2022-08-20T09:45:32;3.80;;;1.30;;
59555;SDS011;45374;52.746;6.304;2022-08-20T09:47:58;6.65;;;1.73;;
59555;SDS011;45374;52.746;6.304;2022-08-20T09:50:24;6.97;;;2.33;;
59555;SDS011;45374;52.746;6.304;2022-08-20T09:52:51;5.78;;;1.70;;
59555;SDS011;45374;52.746;6.304;2022-08-20T09:55:25;6.38;;;1.42;;
59555;SDS011;45374;52.746;6.304;2022-08-20T09:57:56;7.93;;;1.92;;
59555;SDS011;45374;52.746;6.304;2022-08-20T10:00:23;5.03;;;1.40;;
59555;SDS011;45374;52.746;6.304;2022-08-20T10:02:49;5.47;;;1.85;;
59555;SDS011;45374;52.746;6.304;2022-08-20T10:05:15;4.35;;;1.70;;
59555;SDS011;45374;52.746;6.304;2022-08-20T10:07:41;7.95;;;1.50;;
59555;SDS011;45374;52.746;6.304;2022-08-20T10:10:08;4.53;;;1.40;;
59555;SDS011;45374;52.746;6.304;2022-08-20T10:12:36;5.85;;;1.30;;
59555;SDS011;45374;52.746;6.304;2022-08-20T10:15:01;4.45;;;1.48;;
59555;SDS011;45374;52.746;6.304;2022-08-20T10:17:28;10.48;;;1.70;;
59555;SDS011;45374;52.746;6.304;2022-08-20T10:19:53;6.15;;;1.30;;
59555;SDS011;45374;52.746;6.304;2022-08-20T10:22:19;5.03;;;1.30;;
59555;SDS011;45374;52.746;6.304;2022-08-20T10:24:44;6.00;;;1.70;;
59555;SDS011;45374;52.746;6.304;2022-08-20T10:27:10;6.50;;;1.27;;
59555;SDS011;45374;52.746;6.304;2022-08-20T10:29:36;6.65;;;1.40;;
59555;SDS011;45374;52.746;6.304;2022-08-20T10:32:12;5.40;;;1.20;;
59555;SDS011;45374;52.746;6.304;2022-08-20T10:34:41;4.57;;;1.40;;
59555;SDS011;45374;52.746;6.304;2022-08-20T10:37:08;5.63;;;1.30;;
59555;SDS011;45374;52.746;6.304;2022-08-20T10:39:37;4.65;;;1.67;;
59555;SDS011;45374;52.746;6.304;2022-08-20T10:42:03;6.38;;;1.50;;
59555;SDS011;45374;52.746;6.304;2022-08-20T10:44:29;4.28;;;1.10;;
59555;SDS011;45374;52.746;6.304;2022-08-20T10:46:54;5.78;;;1.40;;
59555;SDS011;45374;52.746;6.304;2022-08-20T10:49:20;11.23;;;2.05;;
59555;SDS011;45374;52.746;6.304;2022-08-20T10:51:45;6.30;;;1.88;;
59555;SDS011;45374;52.746;6.304;2022-08-20T10:54:11;6.13;;;1.42;;
59555;SDS011;45374;52.746;6.304;2022-08-20T10:56:37;6.05;;;1.90;;
59555;SDS011;45374;52.746;6.304;2022-08-20T10:59:02;5.65;;;1.40;;
59555;SDS011;45374;52.746;6.304;2022-08-20T11:01:28;5.72;;;1.60;;
59555;SDS011;45374;52.746;6.304;2022-08-20T11:03:53;5.68;;;1.50;;
59555;SDS011;45374;52.746;6.304;2022-08-20T11:06:19;8.30;;;1.52;;
59555;SDS011;45374;52.746;6.304;2022-08-20T11:08:44;3.67;;;1.45;;
59555;SDS011;45374;52.746;6.304;2022-08-20T11:11:10;4.55;;;1.60;;
59555;SDS011;45374;52.746;6.304;2022-08-20T11:13:37;5.07;;;1.67;;
59555;SDS011;45374;52.746;6.304;2022-08-20T11:16:03;6.03;;;1.70;;
59555;SDS011;45374;52.746;6.304;2022-08-20T11:18:29;10.93;;;1.90;;
59555;SDS011;45374;52.746;6.304;2022-08-20T11:20:55;5.30;;;1.80;;
59555;SDS011;45374;52.746;6.304;2022-08-20T11:23:21;5.43;;;1.80;;
59555;SDS011;45374;52.746;6.304;2022-08-20T11:25:46;5.65;;;1.85;;
59555;SDS011;45374;52.746;6.304;2022-08-20T11:28:12;5.53;;;1.65;;
59555;SDS011;45374;52.746;6.304;2022-08-20T11:30:39;4.20;;;1.60;;
59555;SDS011;45374;52.746;6.304;2022-08-20T11:33:05;4.20;;;1.70;;
59555;SDS011;45374;52.746;6.304;2022-08-20T11:35:31;5.75;;;1.70;;
59555;SDS011;45374;52.746;6.304;2022-08-20T11:37:58;7.82;;;2.28;;
59555;SDS011;45374;52.746;6.304;2022-08-20T11:40:25;8.00;;;1.58;;
59555;SDS011;45374;52.746;6.304;2022-08-20T11:42:51;6.10;;;2.15;;
59555;SDS011;45374;52.746;6.304;2022-08-20T11:45:17;11.57;;;2.45;;
59555;SDS011;45374;52.746;6.304;2022-08-20T11:47:42;6.43;;;1.90;;
59555;SDS011;45374;52.746;6.304;2022-08-20T11:50:10;5.28;;;1.77;;
59555;SDS011;45374;52.746;6.304;2022-08-20T11:52:37;4.07;;;1.90;;
59555;SDS011;45374;52.746;6.304;2022-08-20T11:55:04;4.47;;;1.95;;
59555;SDS011;45374;52.746;6.304;2022-08-20T11:57:33;6.32;;;1.90;;
59555;SDS011;45374;52.746;6.304;2022-08-20T12:00:02;4.78;;;1.73;;
59555;SDS011;45374;52.746;6.304;2022-08-20T12:02:31;5.10;;;1.90;;
59555;SDS011;45374;52.746;6.304;2022-08-20T12:04:56;8.80;;;2.05;;
59555;SDS011;45374;52.746;6.304;2022-08-20T12:07:23;7.28;;;1.77;;
59555;SDS011;45374;52.746;6.304;2022-08-20T12:09:50;4.38;;;1.70;;
59555;SDS011;45374;52.746;6.304;2022-08-20T12:12:16;8.02;;;1.70;;
59555;SDS011;45374;52.746;6.304;2022-08-20T12:14:44;7.40;;;1.70;;
59555;SDS011;45374;52.746;6.304;2022-08-20T12:17:12;7.10;;;1.83;;
59555;SDS011;45374;52.746;6.304;2022-08-20T12:19:43;4.75;;;1.67;;
59555;SDS011;45374;52.746;6.304;2022-08-20T12:22:09;6.13;;;1.70;;
59555;SDS011;45374;52.746;6.304;2022-08-20T12:24:35;7.35;;;1.75;;
59555;SDS011;45374;52.746;6.304;2022-08-20T12:27:12;6.78;;;1.63;;
59555;SDS011;45374;52.746;6.304;2022-08-20T12:29:41;4.53;;;1.52;;
59555;SDS011;45374;52.746;6.304;2022-08-20T12:32:08;5.78;;;1.60;;
59555;SDS011;45374;52.746;6.304;2022-08-20T12:34:38;4.88;;;1.60;;
59555;SDS011;45374;52.746;6.304;2022-08-20T12:37:18;4.60;;;1.70;;
59555;SDS011;45374;52.746;6.304;2022-08-20T12:39:47;6.97;;;1.77;;
59555;SDS011;45374;52.746;6.304;2022-08-20T12:42:15;6.05;;;1.70;;
59555;SDS011;45374;52.746;6.304;2022-08-20T12:44:41;4.75;;;1.50;;
59555;SDS011;45374;52.746;6.304;2022-08-20T12:47:11;6.45;;;1.50;;
59555;SDS011;45374;52.746;6.304;2022-08-20T12:49:40;8.10;;;1.83;;
59555;SDS011;45374;52.746;6.304;2022-08-20T12:52:07;8.93;;;1.92;;
59555;SDS011;45374;52.746;6.304;2022-08-20T12:54:33;4.78;;;1.83;;
59555;SDS011;45374;52.746;6.304;2022-08-20T12:56:59;5.90;;;1.63;;
59555;SDS011;45374;52.746;6.304;2022-08-20T12:59:25;7.60;;;1.75;;
59555;SDS011;45374;52.746;6.304;2022-08-20T13:01:51;6.30;;;1.50;;
59555;SDS011;45374;52.746;6.304;2022-08-20T13:04:18;5.72;;;1.80;;
59555;SDS011;45374;52.746;6.304;2022-08-20T13:06:44;9.23;;;1.80;;
59555;SDS011;45374;52.746;6.304;2022-08-20T13:09:10;7.05;;;2.67;;
59555;SDS011;45374;52.746;6.304;2022-08-20T13:11:36;6.60;;;1.70;;
59555;SDS011;45374;52.746;6.304;2022-08-20T13:14:02;7.05;;;1.73;;
59555;SDS011;45374;52.746;6.304;2022-08-20T13:16:28;6.63;;;1.80;;
59555;SDS011;45374;52.746;6.304;2022-08-20T13:18:53;4.55;;;1.58;;
59555;SDS011;45374;52.746;6.304;2022-08-20T13:21:19;5.55;;;1.90;;
59555;SDS011;45374;52.746;6.304;2022-08-20T13:23:44;6.95;;;1.70;;
59555;SDS011;45374;52.746;6.304;2022-08-20T13:26:10;6.53;;;1.90;;
59555;SDS011;45374;52.746;6.304;2022-08-20T13:28:36;6.03;;;1.90;;
59555;SDS011;45374;52.746;6.304;2022-08-20T13:31:01;6.25;;;1.75;;
59555;SDS011;45374;52.746;6.304;2022-08-20T13:33:27;5.40;;;1.80;;
59555;SDS011;45374;52.746;6.304;2022-08-20T13:35:54;5.97;;;1.75;;
59555;SDS011;45374;52.746;6.304;2022-08-20T13:38:20;5.57;;;2.05;;
59555;SDS011;45374;52.746;6.304;2022-08-20T13:40:46;8.40;;;2.47;;
59555;SDS011;45374;52.746;6.304;2022-08-20T13:43:12;9.10;;;2.03;;
59555;SDS011;45374;52.746;6.304;2022-08-20T13:45:38;7.93;;;2.20;;
59555;SDS011;45374;52.746;6.304;2022-08-20T13:48:05;5.72;;;1.90;;
59555;SDS011;45374;52.746;6.304;2022-08-20T13:50:32;9.32;;;2.00;;
59555;SDS011;45374;52.746;6.304;2022-08-20T13:52:57;6.38;;;1.67;;
59555;SDS011;45374;52.746;6.304;2022-08-20T13:55:24;7.70;;;1.90;;
59555;SDS011;45374;52.746;6.304;2022-08-20T13:57:50;7.20;;;1.77;;
59555;SDS011;45374;52.746;6.304;2022-08-20T14:00:35;6.47;;;1.92;;
59555;SDS011;45374;52.746;6.304;2022-08-20T14:03:01;7.70;;;1.88;;
59555;SDS011;45374;52.746;6.304;2022-08-20T14:05:28;6.22;;;2.03;;
59555;SDS011;45374;52.746;6.304;2022-08-20T14:07:54;6.20;;;2.00;;
59555;SDS011;45374;52.746;6.304;2022-08-20T14:10:21;4.65;;;1.80;;
59555;SDS011;45374;52.746;6.304;2022-08-20T14:12:49;7.18;;;1.98;;
59555;SDS011;45374;52.746;6.304;2022-08-20T14:15:15;5.88;;;1.83;;
59555;SDS011;45374;52.746;6.304;2022-08-20T14:17:42;5.53;;;1.90;;
59555;SDS011;45374;52.746;6.304;2022-08-20T14:20:15;8.25;;;2.38;;
59555;SDS011;45374;52.746;6.304;2022-08-20T14:22:45;7.25;;;2.08;;
59555;SDS011;45374;52.746;6.304;2022-08-20T14:25:11;4.68;;;1.92;;
59555;SDS011;45374;52.746;6.304;2022-08-20T14:27:38;6.88;;;1.90;;
59555;SDS011;45374;52.746;6.304;2022-08-20T14:30:06;7.05;;;2.00;;
59555;SDS011;45374;52.746;6.304;2022-08-20T14:32:34;7.65;;;2.05;;
59555;SDS011;45374;52.746;6.304;2022-08-20T14:34:59;7.38;;;2.30;;
59555;SDS011;45374;52.746;6.304;2022-08-20T14:37:33;8.15;;;2.97;;
59555;SDS011;45374;52.746;6.304;2022-08-20T14:40:02;8.13;;;2.40;;
59555;SDS011;45374;52.746;6.304;2022-08-20T14:42:30;9.38;;;2.40;;
59555;SDS011;45374;52.746;6.304;2022-08-20T14:44:56;7.65;;;2.30;;
59555;SDS011;45374;52.746;6.304;2022-08-20T14:49:59;9.07;;;2.85;;
59555;SDS011;45374;52.746;6.304;2022-08-20T14:52:29;8.20;;;2.63;;